Terminal Aerodrome Forecast
Issued by NWS

Home | Current Version | Previous Version | Text Only | Print | Product List | Glossary On
Versions: 1 2 3 4 5 6 7 8 9 10 11 12 13 14 15 16 17 18 19 20 21 22 23 24 25 26 27 28 29 30 31 32
000
FTUS41 KCLE 282339
TAFFDY
TAF
KFDY 282339Z 2900/2924 23007KT P6SM FEW100
     FM291200 23008KT P6SM OVC025
     FM291400 23010G19KT 4SM -SHRA BR BKN015
     FM291800 27009KT 5SM -SHRA VCTS OVC035CB
     FM292100 33009KT P6SM BKN050=

USA.gov is the U.S. government's official web portal to all federal, state and local government web resources and services.